Terminal Aerodrome Forecast
Issued by NWS

Home | Current Version | Previous Version | Text Only | Print | Product List | Glossary On
Versions: 1 2 3 4 5 6 7 8 9 10 11 12 13 14 15 16 17 18 19 20 21 22 23 24 25 26 27 28 29 30 31 32 33
000
FTUS43 KLOT 292300
TAFORD
TAF
KORD 292337Z 3000/3106 28007KT P6SM SCT060 SCT150
     FM301500 30009KT P6SM SCT045 SCT150
     FM301900 31009KT P6SM VCSH BKN045
     FM302100 06010KT P6SM VCSH SCT045
     FM310200 13005KT P6SM SCT060=

USA.gov is the U.S. government's official web portal to all federal, state and local government web resources and services.